Terminal Aerodrome Forecast
Issued by NWS Jackson, MS

Home | Current Version | Previous Version | Text Only | Print | Product List | Glossary On
Versions: 1 2 3 4 5 6 7 8 9 10 11 12 13
000
FTUS44 KJAN 051122
TAFHBG
TAF
KHBG 051122Z 0512/0612 03006KT 4SM BR VCSH OVC003
     FM051600 07005KT 3SM RA BR VCTS BKN007 OVC015CB
     FM060200 16009KT 5SM BR VCTS BKN003 OVC010CB
     FM060700 20011KT 5SM BR VCSH OVC003=

USA.gov is the U.S. government's official web portal to all federal, state and local government web resources and services.